createdAt,value
2023-02-27T00:00:35.850Z,1.60
2023-02-27T00:03:02.351Z,1.40
2023-02-27T00:05:28.867Z,1.67
2023-02-27T00:07:55.362Z,1.90
2023-02-27T00:10:22.217Z,2.03
2023-02-27T00:12:48.789Z,1.95
2023-02-27T00:15:18.366Z,1.65
2023-02-27T00:17:45.238Z,1.88
2023-02-27T00:20:14.999Z,1.80
2023-02-27T00:22:42.283Z,3.38
2023-02-27T00:25:09.465Z,2.10
2023-02-27T00:27:36.994Z,2.58
2023-02-27T00:30:08.914Z,2.40
2023-02-27T00:32:36.771Z,1.95
2023-02-27T00:35:09.025Z,2.22
2023-02-27T00:37:35.815Z,2.20
2023-02-27T00:40:02.447Z,2.15
2023-02-27T00:42:30.862Z,1.70
2023-02-27T00:44:57.386Z,1.70
2023-02-27T00:47:23.956Z,1.50
2023-02-27T00:49:50.583Z,1.50
2023-02-27T00:52:17.063Z,1.80
2023-02-27T00:54:43.678Z,2.10
2023-02-27T00:57:10.096Z,1.90
2023-02-27T00:59:36.637Z,1.75
2023-02-27T01:02:03.158Z,1.70
2023-02-27T01:04:29.637Z,1.63
2023-02-27T01:06:56.177Z,1.92
2023-02-27T01:09:22.744Z,1.83
2023-02-27T01:11:49.278Z,3.25
2023-02-27T01:14:15.698Z,2.70
2023-02-27T01:16:42.265Z,2.65
2023-02-27T01:19:08.969Z,2.13
2023-02-27T01:21:35.444Z,2.08
2023-02-27T01:24:02.366Z,2.03
2023-02-27T01:26:29.042Z,2.50
2023-02-27T01:28:55.523Z,2.10
2023-02-27T01:31:21.972Z,1.85
2023-02-27T01:33:49.058Z,2.17
2023-02-27T01:36:15.569Z,1.98
2023-02-27T01:38:42.082Z,1.85
2023-02-27T01:41:08.640Z,2.80
2023-02-27T01:43:53.352Z,2.50
2023-02-27T01:46:19.832Z,2.00
2023-02-27T01:48:46.510Z,1.77
2023-02-27T01:51:21.047Z,2.80
2023-02-27T01:53:53.242Z,3.72
2023-02-27T01:56:29.961Z,4.10
2023-02-27T01:59:03.508Z,3.00
2023-02-27T02:01:32.287Z,2.47
2023-02-27T02:04:26.353Z,2.25
2023-02-27T02:07:01.024Z,2.10
2023-02-27T02:09:29.480Z,3.45
2023-02-27T02:11:57.719Z,2.58
2023-02-27T02:14:24.312Z,2.30
2023-02-27T02:17:05.635Z,2.30
2023-02-27T02:19:47.321Z,2.58
2023-02-27T02:22:38.152Z,2.30
2023-02-27T02:25:42.193Z,1.80
2023-02-27T02:28:35.574Z,1.98
2023-02-27T02:31:17.395Z,2.65
2023-02-27T02:34:03.949Z,2.35
2023-02-27T02:36:51.080Z,2.42
2023-02-27T02:39:25.684Z,3.50
2023-02-27T02:42:02.755Z,2.63
2023-02-27T02:44:50.362Z,2.55
2023-02-27T02:47:38.285Z,1.85
2023-02-27T02:50:22.265Z,2.28
2023-02-27T02:53:18.143Z,2.13
2023-02-27T02:55:51.228Z,2.60
2023-02-27T02:58:49.512Z,2.47
2023-02-27T03:01:34.723Z,2.20
2023-02-27T03:04:12.889Z,2.08
2023-02-27T03:06:52.460Z,2.45
2023-02-27T03:09:27.018Z,2.30
2023-02-27T03:11:55.166Z,2.05
2023-02-27T03:14:21.505Z,2.70
2023-02-27T03:16:53.347Z,3.00
2023-02-27T03:19:25.560Z,2.25
2023-02-27T03:22:09.346Z,2.22
2023-02-27T03:24:53.964Z,1.90
2023-02-27T03:27:22.232Z,1.80
2023-02-27T03:30:05.707Z,2.40
2023-02-27T03:32:56.368Z,2.30
2023-02-27T03:35:29.344Z,2.17
2023-02-27T03:38:04.986Z,2.40
2023-02-27T03:41:08.068Z,2.38
2023-02-27T03:43:48.331Z,2.03
2023-02-27T03:46:19.939Z,1.90
2023-02-27T03:48:47.138Z,2.00
2023-02-27T03:51:17.110Z,4.07
2023-02-27T03:54:16.774Z,2.40
2023-02-27T03:57:03.134Z,2.20
2023-02-27T03:59:30.856Z,1.90
2023-02-27T04:01:58.759Z,5.05
2023-02-27T04:04:28.817Z,2.83
2023-02-27T04:07:20.332Z,2.47
2023-02-27T04:10:15.072Z,3.05
2023-02-27T04:12:50.768Z,2.55
2023-02-27T04:15:29.153Z,3.05
2023-02-27T04:18:19.033Z,2.75
2023-02-27T04:23:33.914Z,2.17
2023-02-27T04:26:17.307Z,2.20
2023-02-27T04:29:18.633Z,2.45
2023-02-27T04:31:54.641Z,2.40
2023-02-27T04:34:30.024Z,2.80
2023-02-27T04:37:02.101Z,2.25
2023-02-27T04:39:34.368Z,2.50
2023-02-27T04:42:10.280Z,2.47
2023-02-27T04:44:39.026Z,2.30
2023-02-27T04:47:08.529Z,1.70
2023-02-27T04:49:40.482Z,2.28
2023-02-27T04:52:15.971Z,2.53
2023-02-27T04:54:59.790Z,1.90
2023-02-27T04:57:41.235Z,1.92
2023-02-27T05:00:12.030Z,1.80
2023-02-27T05:02:43.725Z,2.15
2023-02-27T05:05:16.555Z,2.10
2023-02-27T05:07:50.538Z,2.72
2023-02-27T05:10:29.434Z,2.58
2023-02-27T05:13:05.585Z,2.17
2023-02-27T05:15:38.961Z,2.47
2023-02-27T05:18:09.135Z,3.05
2023-02-27T05:20:47.859Z,2.72
2023-02-27T05:23:44.865Z,2.80
2023-02-27T05:26:20.260Z,2.63
2023-02-27T05:28:55.288Z,2.97
2023-02-27T05:31:28.876Z,2.78
2023-02-27T05:34:28.831Z,2.30
2023-02-27T05:37:18.653Z,2.40
2023-02-27T05:39:48.062Z,2.67
2023-02-27T05:42:26.798Z,2.67
2023-02-27T05:45:04.011Z,2.17
2023-02-27T05:47:34.504Z,2.30
2023-02-27T05:50:13.839Z,2.83
2023-02-27T05:52:42.655Z,2.28
2023-02-27T05:55:18.711Z,2.58
2023-02-27T05:57:57.375Z,3.20
2023-02-27T06:00:48.348Z,3.80
2023-02-27T06:03:15.048Z,4.30
2023-02-27T06:05:46.745Z,4.53
2023-02-27T06:08:13.211Z,3.05
2023-02-27T06:10:39.726Z,3.72
2023-02-27T06:13:06.221Z,4.10
2023-02-27T06:15:32.682Z,3.85
2023-02-27T06:17:59.165Z,3.80
2023-02-27T06:20:25.637Z,4.15
2023-02-27T06:22:52.085Z,3.70
2023-02-27T06:25:18.493Z,3.97
2023-02-27T06:27:44.952Z,3.75
2023-02-27T06:30:11.989Z,3.63
2023-02-27T06:32:38.435Z,4.03
2023-02-27T06:35:06.474Z,3.45
2023-02-27T06:37:33.229Z,3.13
2023-02-27T06:39:59.669Z,3.15
2023-02-27T06:42:26.872Z,3.20
2023-02-27T06:44:53.372Z,3.22
2023-02-27T06:47:19.889Z,5.57
2023-02-27T06:49:46.376Z,4.22
2023-02-27T06:52:12.873Z,3.95
2023-02-27T06:54:39.333Z,4.57
2023-02-27T06:57:06.042Z,4.78
2023-02-27T06:59:32.574Z,3.53
2023-02-27T07:02:00.511Z,3.17
2023-02-27T07:04:26.971Z,2.78
2023-02-27T07:07:33.185Z,4.13
2023-02-27T07:09:39.870Z,3.83
2023-02-27T07:12:07.979Z,4.57
2023-02-27T07:14:34.779Z,3.35
2023-02-27T07:17:04.396Z,4.03
2023-02-27T07:19:36.161Z,4.72
2023-02-27T07:22:02.669Z,3.33
2023-02-27T07:24:29.123Z,3.50
2023-02-27T07:26:55.623Z,4.00
2023-02-27T07:29:22.516Z,4.00
2023-02-27T07:31:49.042Z,4.05
2023-02-27T07:34:15.710Z,3.35
2023-02-27T07:36:43.458Z,3.80
2023-02-27T07:39:12.788Z,3.47
2023-02-27T07:41:39.313Z,3.30
2023-02-27T07:44:08.479Z,4.05
2023-02-27T07:46:35.910Z,4.05
2023-02-27T07:49:02.655Z,4.22
2023-02-27T07:51:29.406Z,3.60
2023-02-27T07:53:58.965Z,3.72
2023-02-27T07:56:27.826Z,4.60
2023-02-27T07:58:54.725Z,3.65
2023-02-27T08:01:21.357Z,4.20
2023-02-27T08:03:47.948Z,4.20
2023-02-27T08:06:14.349Z,3.95
2023-02-27T08:08:40.818Z,3.22
2023-02-27T08:11:07.325Z,2.80
2023-02-27T08:14:00.123Z,3.20
2023-02-27T08:16:21.212Z,3.08
2023-02-27T08:18:47.827Z,3.60
2023-02-27T08:21:14.319Z,3.17
2023-02-27T08:23:42.625Z,2.65
2023-02-27T08:26:09.254Z,3.60
2023-02-27T08:28:35.685Z,3.40
2023-02-27T08:31:02.210Z,3.60
2023-02-27T08:33:28.746Z,3.15
2023-02-27T08:35:55.758Z,3.42
2023-02-27T08:38:22.861Z,2.72
2023-02-27T08:40:54.901Z,3.00
2023-02-27T08:43:22.734Z,4.32
2023-02-27T08:45:50.108Z,4.03
2023-02-27T08:48:18.384Z,3.13
2023-02-27T08:50:46.239Z,3.88
2023-02-27T08:53:13.506Z,3.08
2023-02-27T08:55:40.055Z,4.60
2023-02-27T08:58:06.520Z,4.50
2023-02-27T09:00:32.988Z,3.15
2023-02-27T09:03:00.581Z,3.85
2023-02-27T09:05:28.116Z,2.80
2023-02-27T09:07:54.782Z,3.42
2023-02-27T09:10:21.548Z,2.80
2023-02-27T09:12:49.248Z,3.65
2023-02-27T09:15:15.828Z,3.13
2023-02-27T09:17:42.304Z,3.40
2023-02-27T09:20:09.867Z,3.42
2023-02-27T09:22:36.327Z,6.65
2023-02-27T09:25:03.265Z,7.05
2023-02-27T09:27:29.757Z,2.63
2023-02-27T09:29:56.429Z,3.20
2023-02-27T09:32:23.578Z,3.08
2023-02-27T09:34:50.412Z,2.60
2023-02-27T09:37:18.109Z,3.30
2023-02-27T09:39:46.353Z,2.70
2023-02-27T09:42:20.899Z,3.00
2023-02-27T09:45:02.932Z,3.00
2023-02-27T09:47:39.686Z,2.92
2023-02-27T09:50:24.517Z,3.10
2023-02-27T09:52:51.093Z,2.85
2023-02-27T09:55:20.445Z,3.33
2023-02-27T09:57:58.955Z,3.30
2023-02-27T10:00:43.569Z,3.08
2023-02-27T10:03:29.571Z,3.25
2023-02-27T10:06:08.413Z,2.75
2023-02-27T10:08:34.815Z,3.55
2023-02-27T10:11:06.932Z,3.33
2023-02-27T10:13:41.333Z,3.20
2023-02-27T10:16:13.212Z,2.72
2023-02-27T10:18:54.144Z,2.45
2023-02-27T10:21:33.208Z,2.92
2023-02-27T10:24:07.402Z,4.53
2023-02-27T10:26:39.487Z,3.90
2023-02-27T10:29:29.284Z,9.30
2023-02-27T10:32:21.127Z,2.72
2023-02-27T10:35:16.393Z,2.85
2023-02-27T10:40:16.298Z,2.05
2023-02-27T10:42:43.316Z,1.60
2023-02-27T10:45:17.538Z,1.40
2023-02-27T10:47:44.269Z,1.30
2023-02-27T10:50:29.169Z,1.42
2023-02-27T10:52:58.681Z,1.65
2023-02-27T10:55:32.119Z,1.50
2023-02-27T10:58:01.412Z,1.70
2023-02-27T11:00:31.490Z,1.80
2023-02-27T11:02:58.576Z,1.45
2023-02-27T11:05:31.640Z,1.30
2023-02-27T11:08:12.820Z,1.42
2023-02-27T11:10:53.928Z,1.60
2023-02-27T11:13:22.930Z,1.40
2023-02-27T11:16:07.294Z,1.45
2023-02-27T11:18:35.609Z,1.52
2023-02-27T11:21:22.658Z,1.33
2023-02-27T11:23:50.436Z,1.38
2023-02-27T11:26:22.371Z,1.70
2023-02-27T11:29:08.331Z,1.50
2023-02-27T11:31:37.152Z,1.55
2023-02-27T11:34:04.916Z,1.50
2023-02-27T11:36:47.316Z,1.30
2023-02-27T11:39:25.906Z,1.50
2023-02-27T11:41:54.093Z,1.65
2023-02-27T11:44:34.010Z,1.38
2023-02-27T11:47:23.460Z,1.65
2023-02-27T11:50:32.573Z,1.60
2023-02-27T11:53:25.195Z,1.70
2023-02-27T11:55:55.276Z,1.70
2023-02-27T11:58:26.009Z,1.50
2023-02-27T12:01:03.884Z,1.35
2023-02-27T12:03:35.169Z,1.50
2023-02-27T12:06:10.426Z,1.98
2023-02-27T12:08:46.011Z,1.55
2023-02-27T12:11:31.160Z,1.40
2023-02-27T12:14:13.253Z,1.65
2023-02-27T12:16:51.237Z,1.30
2023-02-27T12:19:34.158Z,1.40
2023-02-27T12:22:09.264Z,1.52
2023-02-27T12:24:53.010Z,1.20
2023-02-27T12:27:24.853Z,1.25
2023-02-27T12:29:56.311Z,1.67
2023-02-27T12:32:22.888Z,1.10
2023-02-27T12:34:59.061Z,1.48
2023-02-27T12:37:29.047Z,1.35
2023-02-27T12:39:59.165Z,1.30
2023-02-27T12:43:00.381Z,1.70
2023-02-27T12:45:48.214Z,1.33
2023-02-27T12:48:23.846Z,1.08
2023-02-27T12:51:17.184Z,1.33
2023-02-27T12:54:12.095Z,1.50
2023-02-27T12:57:03.657Z,1.20
2023-02-27T12:59:36.278Z,1.20
2023-02-27T13:02:17.952Z,1.17
2023-02-27T13:04:47.573Z,1.58
2023-02-27T13:07:25.872Z,1.83
2023-02-27T13:09:57.005Z,1.13
2023-02-27T13:12:50.970Z,1.30
2023-02-27T13:15:42.043Z,1.40
2023-02-27T13:18:34.197Z,1.30
2023-02-27T13:21:11.194Z,1.17
2023-02-27T13:26:15.346Z,1.40
2023-02-27T13:28:42.067Z,1.35
2023-02-27T13:31:47.709Z,1.35
2023-02-27T13:34:22.029Z,1.20
2023-02-27T13:36:57.796Z,1.10
2023-02-27T13:39:52.612Z,1.20
2023-02-27T13:42:27.985Z,1.10
2023-02-27T13:44:56.900Z,1.20
2023-02-27T13:47:29.499Z,1.20
2023-02-27T13:50:02.023Z,1.40
2023-02-27T13:52:33.913Z,1.20
2023-02-27T13:55:11.160Z,5.75
2023-02-27T13:57:38.828Z,3.95
2023-02-27T14:00:20.173Z,1.33
2023-02-27T14:03:20.441Z,1.33
2023-02-27T14:05:51.458Z,1.30
2023-02-27T14:08:28.069Z,1.38
2023-02-27T14:11:00.471Z,1.52
2023-02-27T14:13:45.623Z,1.27
2023-02-27T14:16:37.220Z,1.30
2023-02-27T14:19:28.457Z,1.33
2023-02-27T14:21:56.740Z,1.27
2023-02-27T14:24:33.383Z,1.48
2023-02-27T14:27:00.983Z,1.50
2023-02-27T14:29:33.403Z,1.58
2023-02-27T14:32:04.253Z,1.73
2023-02-27T14:34:31.258Z,2.00
2023-02-27T14:37:02.427Z,1.80
2023-02-27T14:39:33.318Z,1.40
2023-02-27T14:42:11.873Z,1.40
2023-02-27T14:44:43.573Z,1.30
2023-02-27T14:47:25.561Z,1.38
2023-02-27T14:50:12.146Z,1.27
2023-02-27T14:52:43.196Z,1.65
2023-02-27T14:55:18.971Z,1.40
2023-02-27T14:57:57.628Z,1.50
2023-02-27T15:01:03.411Z,1.65
2023-02-27T15:04:00.501Z,1.52
2023-02-27T15:06:40.663Z,1.60
2023-02-27T15:09:07.569Z,1.63
2023-02-27T15:11:34.391Z,1.60
2023-02-27T15:14:06.262Z,1.83
2023-02-27T15:16:38.404Z,1.50
2023-02-27T15:19:16.979Z,1.50
2023-02-27T15:21:49.791Z,1.73
2023-02-27T15:24:49.337Z,1.58
2023-02-27T15:27:20.218Z,1.50
2023-02-27T15:29:56.289Z,2.10
2023-02-27T15:32:30.889Z,1.67
2023-02-27T15:35:01.054Z,1.65
2023-02-27T15:37:33.468Z,0.95
2023-02-27T15:40:01.311Z,1.65
2023-02-27T15:42:31.886Z,1.65
2023-02-27T15:44:59.504Z,1.63
2023-02-27T15:47:28.731Z,1.60
2023-02-27T15:50:01.192Z,1.77
2023-02-27T15:52:38.623Z,2.10
2023-02-27T15:55:13.328Z,1.80
2023-02-27T15:57:40.933Z,1.80
2023-02-27T16:00:11.117Z,2.10
2023-02-27T16:02:45.604Z,1.75
2023-02-27T16:05:18.690Z,1.90
2023-02-27T16:07:47.086Z,2.13
2023-02-27T16:10:24.046Z,2.63
2023-02-27T16:12:50.822Z,2.40
2023-02-27T16:15:31.969Z,2.10
2023-02-27T16:18:09.049Z,1.83
2023-02-27T16:23:22.129Z,1.95
2023-02-27T16:26:23.541Z,2.10
2023-02-27T16:28:56.254Z,2.10
2023-02-27T16:31:24.950Z,2.00
2023-02-27T16:33:52.967Z,2.53
2023-02-27T16:36:23.263Z,2.20
2023-02-27T16:38:49.977Z,2.53
2023-02-27T16:41:19.209Z,2.47
2023-02-27T16:43:47.084Z,2.75
2023-02-27T16:46:20.120Z,2.20
2023-02-27T16:49:14.160Z,2.80
2023-02-27T16:51:45.489Z,3.05
2023-02-27T16:54:13.666Z,2.97
2023-02-27T16:56:40.676Z,2.90
2023-02-27T16:59:07.938Z,3.00
2023-02-27T17:01:34.851Z,2.70
2023-02-27T17:04:01.925Z,2.85
2023-02-27T17:06:29.793Z,3.08
2023-02-27T17:08:57.781Z,2.83
2023-02-27T17:11:24.379Z,3.30
2023-02-27T17:13:51.744Z,2.85
2023-02-27T17:16:18.255Z,2.80
2023-02-27T17:18:44.717Z,3.22
2023-02-27T17:21:11.159Z,2.80
2023-02-27T17:23:37.584Z,2.92
2023-02-27T17:26:04.570Z,3.72
2023-02-27T17:28:31.085Z,3.25
2023-02-27T17:30:57.763Z,3.60
2023-02-27T17:33:24.280Z,2.60
2023-02-27T17:35:52.390Z,3.40
2023-02-27T17:38:18.902Z,3.50
2023-02-27T17:40:45.305Z,3.22
2023-02-27T17:43:11.740Z,3.33
2023-02-27T17:45:38.448Z,3.88
2023-02-27T17:48:05.079Z,3.63
2023-02-27T17:50:32.117Z,4.53
2023-02-27T17:52:58.555Z,4.28
2023-02-27T17:55:25.028Z,5.88
2023-02-27T17:57:51.451Z,4.18
2023-02-27T18:00:18.277Z,5.05
2023-02-27T18:02:45.247Z,5.57
2023-02-27T18:05:12.003Z,4.03
2023-02-27T18:07:38.760Z,5.13
2023-02-27T18:10:06.765Z,3.70
2023-02-27T18:12:33.223Z,7.97
2023-02-27T18:14:59.763Z,3.72
2023-02-27T18:17:26.228Z,4.82
2023-02-27T18:19:52.819Z,3.63
2023-02-27T18:22:21.635Z,3.47
2023-02-27T18:24:49.107Z,3.40
2023-02-27T18:27:15.548Z,3.90
2023-02-27T18:29:42.014Z,3.95
2023-02-27T18:32:08.919Z,4.03
2023-02-27T18:34:35.729Z,3.35
2023-02-27T18:37:02.227Z,4.38
2023-02-27T18:39:28.721Z,4.13
2023-02-27T18:41:55.162Z,5.05
2023-02-27T18:44:21.716Z,5.40
2023-02-27T18:46:48.243Z,3.63
2023-02-27T18:49:15.700Z,3.80
2023-02-27T18:51:42.370Z,2.83
2023-02-27T18:54:12.467Z,3.83
2023-02-27T18:56:38.892Z,4.40
2023-02-27T18:59:06.739Z,2.67
2023-02-27T19:01:37.837Z,2.67
2023-02-27T19:04:06.390Z,2.55
2023-02-27T19:06:35.608Z,2.30
2023-02-27T19:09:05.180Z,2.60
2023-02-27T19:11:35.580Z,2.30
2023-02-27T19:14:04.541Z,2.25
2023-02-27T19:16:31.717Z,2.67
2023-02-27T19:18:59.673Z,2.50
2023-02-27T19:21:26.961Z,2.15
2023-02-27T19:23:53.854Z,3.58
2023-02-27T19:26:20.956Z,2.90
2023-02-27T19:28:54.151Z,3.22
2023-02-27T19:31:23.523Z,3.20
2023-02-27T19:33:50.158Z,3.95
2023-02-27T19:36:19.772Z,3.53
2023-02-27T19:38:46.287Z,3.78
2023-02-27T19:41:14.236Z,4.43
2023-02-27T19:43:41.239Z,3.40
2023-02-27T19:46:10.231Z,3.92
2023-02-27T19:48:37.374Z,3.90
2023-02-27T19:51:09.263Z,4.50
2023-02-27T19:53:37.232Z,5.13
2023-02-27T19:56:06.427Z,3.95
2023-02-27T19:58:33.804Z,3.50
2023-02-27T20:01:00.749Z,3.13
2023-02-27T20:03:27.396Z,4.40
2023-02-27T20:05:53.817Z,3.22
2023-02-27T20:08:20.858Z,2.78
2023-02-27T20:10:55.285Z,3.42
2023-02-27T20:13:21.749Z,3.85
2023-02-27T20:16:05.835Z,9.52
2023-02-27T20:18:32.935Z,7.88
2023-02-27T20:21:05.807Z,4.78
2023-02-27T20:23:34.098Z,4.40
2023-02-27T20:26:00.654Z,6.18
2023-02-27T20:28:28.953Z,7.75
2023-02-27T20:30:55.543Z,4.05
2023-02-27T20:33:22.116Z,5.10
2023-02-27T20:35:48.594Z,4.57
2023-02-27T20:38:17.031Z,5.22
2023-02-27T20:40:43.503Z,4.32
2023-02-27T20:43:09.963Z,3.90
2023-02-27T20:45:39.849Z,3.03
2023-02-27T20:48:07.723Z,3.95
2023-02-27T20:50:34.835Z,4.78
2023-02-27T20:53:01.392Z,3.78
2023-02-27T20:55:27.876Z,2.90
2023-02-27T20:57:54.320Z,3.70
2023-02-27T21:00:21.572Z,4.88
2023-02-27T21:02:48.076Z,5.65
2023-02-27T21:05:15.249Z,6.45
2023-02-27T21:07:42.925Z,6.82
2023-02-27T21:10:10.121Z,3.63
2023-02-27T21:12:36.592Z,3.70
2023-02-27T21:15:03.471Z,4.70
2023-02-27T21:17:29.916Z,4.97
2023-02-27T21:19:56.452Z,4.68
2023-02-27T21:22:23.046Z,3.90
2023-02-27T21:24:51.940Z,5.18
2023-02-27T21:27:20.781Z,3.42
2023-02-27T21:29:48.721Z,3.47
2023-02-27T21:32:15.568Z,3.75
2023-02-27T21:34:42.105Z,4.22
2023-02-27T21:37:10.532Z,3.78
2023-02-27T21:39:36.999Z,7.63
2023-02-27T21:42:03.942Z,3.92
2023-02-27T21:44:31.968Z,3.50
2023-02-27T21:46:58.602Z,3.13
2023-02-27T21:49:27.861Z,3.90
2023-02-27T21:51:55.269Z,3.40
2023-02-27T21:54:22.436Z,2.83
2023-02-27T21:56:49.421Z,3.40
2023-02-27T21:59:17.250Z,2.95
2023-02-27T22:01:47.340Z,3.28
2023-02-27T22:04:18.685Z,2.97
2023-02-27T22:06:45.177Z,3.30
2023-02-27T22:09:11.827Z,3.67
2023-02-27T22:11:40.776Z,2.67
2023-02-27T22:14:08.436Z,2.90
2023-02-27T22:16:35.614Z,2.38
2023-02-27T22:19:10.528Z,2.90
2023-02-27T22:21:38.344Z,3.30
2023-02-27T22:24:06.230Z,2.95
2023-02-27T22:26:33.342Z,3.00
2023-02-27T22:28:59.974Z,2.35
2023-02-27T22:31:32.689Z,3.28
2023-02-27T22:34:03.552Z,2.65
2023-02-27T22:36:31.424Z,3.50
2023-02-27T22:38:58.911Z,2.83
2023-02-27T22:41:34.005Z,3.13
2023-02-27T22:44:01.970Z,3.17
2023-02-27T22:46:33.629Z,2.83
2023-02-27T22:49:03.091Z,2.65
2023-02-27T22:51:30.377Z,2.83
2023-02-27T22:53:59.148Z,3.25
2023-02-27T22:56:26.465Z,3.55
2023-02-27T22:58:53.478Z,3.38
2023-02-27T23:01:23.393Z,2.65
2023-02-27T23:03:51.960Z,2.15
2023-02-27T23:06:25.061Z,2.15
2023-02-27T23:08:52.096Z,1.90
2023-02-27T23:11:20.468Z,1.90
2023-02-27T23:13:47.620Z,2.22
2023-02-27T23:16:14.321Z,3.15
2023-02-27T23:18:48.826Z,2.45
2023-02-27T23:21:16.976Z,1.75
2023-02-27T23:23:43.731Z,2.42
2023-02-27T23:26:10.171Z,2.60
2023-02-27T23:28:37.510Z,3.03
2023-02-27T23:31:05.917Z,3.03
2023-02-27T23:33:32.584Z,2.53
2023-02-27T23:35:59.188Z,2.38
2023-02-27T23:38:26.038Z,2.83
2023-02-27T23:40:53.055Z,2.53
2023-02-27T23:43:19.838Z,2.65
2023-02-27T23:45:46.464Z,4.07
2023-02-27T23:48:13.030Z,3.45
2023-02-27T23:50:43.724Z,3.22
2023-02-27T23:53:13.327Z,3.10
2023-02-27T23:55:40.870Z,4.20
2023-02-27T23:58:09.576Z,3.25
